createdAt,value
2022-07-26T00:00:37.324Z,384
2022-07-26T00:02:21.028Z,387.3
2022-07-26T00:04:04.766Z,385.5
2022-07-26T00:05:48.427Z,384.3
2022-07-26T00:07:32.135Z,385.3
2022-07-26T00:09:15.833Z,389.3
2022-07-26T00:10:59.536Z,388.3
2022-07-26T00:12:43.237Z,386.1
2022-07-26T00:14:26.938Z,386.3
2022-07-26T00:16:10.648Z,385.5
2022-07-26T00:17:54.361Z,388
2022-07-26T00:19:38.039Z,386
2022-07-26T00:21:21.736Z,385.1
2022-07-26T00:23:05.461Z,382.7
2022-07-26T00:24:49.225Z,385
2022-07-26T00:26:32.871Z,385.7
2022-07-26T00:28:16.553Z,384.6
2022-07-26T00:30:00.262Z,380.3
2022-07-26T00:31:44.048Z,381.4
2022-07-26T00:33:27.664Z,381.9
2022-07-26T00:35:11.356Z,382
2022-07-26T00:36:55.130Z,381.3
2022-07-26T00:38:38.768Z,383.7
2022-07-26T00:40:22.548Z,381.4
2022-07-26T00:42:06.195Z,382.2
2022-07-26T00:43:49.872Z,383.3
2022-07-26T00:45:33.658Z,382.4
2022-07-26T00:47:17.303Z,379.9
2022-07-26T00:49:00.982Z,380.6
2022-07-26T00:50:44.689Z,380.7
2022-07-26T00:52:28.389Z,381.1
2022-07-26T00:54:12.151Z,381.5
2022-07-26T00:55:55.799Z,381.7
2022-07-26T00:57:39.553Z,382.1
2022-07-26T00:59:23.220Z,384.7
2022-07-26T01:01:06.964Z,386.3
2022-07-26T01:02:50.591Z,386
2022-07-26T01:04:34.305Z,385.7
2022-07-26T01:06:18.007Z,383.4
2022-07-26T01:08:01.698Z,383
2022-07-26T01:09:45.470Z,381.5
2022-07-26T01:11:29.159Z,382.8
2022-07-26T01:13:12.803Z,384.5
2022-07-26T01:14:56.523Z,383.2
2022-07-26T01:16:40.205Z,382.3
2022-07-26T01:18:23.909Z,384.5
2022-07-26T01:20:07.620Z,387.3
2022-07-26T01:21:51.310Z,387.3
2022-07-26T01:23:35.017Z,387.2
2022-07-26T01:25:18.755Z,382.3
2022-07-26T01:27:02.431Z,379.5
2022-07-26T01:28:46.126Z,379.4
2022-07-26T01:30:29.835Z,379.4
2022-07-26T01:32:13.531Z,378.8
2022-07-26T01:33:57.236Z,381.3
2022-07-26T01:35:40.927Z,375.8
2022-07-26T01:37:24.638Z,377.5
2022-07-26T01:39:08.333Z,382.7
2022-07-26T01:40:52.042Z,382.1
2022-07-26T01:42:35.739Z,382.5
2022-07-26T01:44:19.440Z,384.6
2022-07-26T01:46:03.152Z,381.7
2022-07-26T01:47:46.849Z,380.8
2022-07-26T01:49:30.558Z,381.9
2022-07-26T01:51:14.255Z,383.7
2022-07-26T01:52:57.954Z,382.6
2022-07-26T01:54:41.667Z,380.4
2022-07-26T01:56:25.366Z,380.6
2022-07-26T01:58:09.067Z,382.2
2022-07-26T01:59:52.770Z,380.8
2022-07-26T02:01:36.483Z,380.4
2022-07-26T02:03:20.176Z,378.2
2022-07-26T02:05:03.878Z,379.3
2022-07-26T02:06:47.578Z,380
2022-07-26T02:08:31.285Z,377.3
2022-07-26T02:10:15.014Z,377.1
2022-07-26T02:11:58.690Z,377.1
2022-07-26T02:13:42.380Z,375.1
2022-07-26T02:15:26.085Z,372.4
2022-07-26T02:17:09.789Z,374.4
2022-07-26T02:18:53.500Z,377.9
2022-07-26T02:20:37.191Z,377.3
2022-07-26T02:22:20.888Z,377.7
2022-07-26T02:24:04.619Z,376.3
2022-07-26T02:25:48.303Z,378.4
2022-07-26T02:27:32.001Z,379.6
2022-07-26T02:29:15.702Z,377.7
2022-07-26T02:30:59.399Z,378.5
2022-07-26T02:32:43.100Z,377.3
2022-07-26T02:34:26.813Z,377.5
2022-07-26T02:36:10.511Z,379.7
2022-07-26T02:37:54.212Z,381.4
2022-07-26T02:39:37.916Z,380.9
2022-07-26T02:41:21.611Z,379.8
2022-07-26T02:43:05.314Z,381.6
2022-07-26T02:44:49.026Z,382.1
2022-07-26T02:46:32.721Z,381.2
2022-07-26T02:50:00.118Z,381.6
2022-07-26T02:51:43.862Z,384.7
2022-07-26T02:53:27.527Z,384.5
2022-07-26T02:55:11.222Z,384.5
2022-07-26T02:56:54.947Z,383.6
2022-07-26T02:58:38.652Z,386.5
2022-07-26T03:00:22.335Z,380.9
2022-07-26T03:02:06.032Z,382.1
2022-07-26T03:03:49.745Z,382.2
2022-07-26T03:05:33.440Z,380.2
2022-07-26T03:07:17.143Z,383.5
2022-07-26T03:09:00.834Z,384.4
2022-07-26T03:10:44.545Z,387.9
2022-07-26T03:12:28.271Z,387.9
2022-07-26T03:14:11.965Z,385.1
2022-07-26T03:15:55.660Z,383.8
2022-07-26T03:17:39.359Z,383.8
2022-07-26T03:19:23.112Z,383.6
2022-07-26T03:21:06.764Z,382.7
2022-07-26T03:22:50.460Z,384.8
2022-07-26T03:24:34.168Z,385.6
2022-07-26T03:26:17.867Z,386
2022-07-26T03:28:01.561Z,385.4
2022-07-26T03:29:45.270Z,378.8
2022-07-26T03:31:28.981Z,377.7
2022-07-26T03:33:12.673Z,380.8
2022-07-26T03:34:56.380Z,380.8
2022-07-26T03:36:40.087Z,378
2022-07-26T03:38:23.775Z,376
2022-07-26T03:40:07.476Z,375.7
2022-07-26T03:41:51.172Z,378.2
2022-07-26T03:43:34.886Z,379
2022-07-26T03:45:18.590Z,380.7
2022-07-26T03:47:02.287Z,381.8
2022-07-26T03:48:46.004Z,384.7
2022-07-26T03:50:29.696Z,384.7
2022-07-26T03:52:13.395Z,382.7
2022-07-26T03:53:57.207Z,382.9
2022-07-26T03:55:40.792Z,384.4
2022-07-26T03:57:24.501Z,383.3
2022-07-26T03:59:08.208Z,381.8
2022-07-26T04:00:51.900Z,380.9
2022-07-26T04:02:35.609Z,380.7
2022-07-26T04:04:19.309Z,382.6
2022-07-26T04:06:03.005Z,381.8
2022-07-26T04:07:46.721Z,379.6
2022-07-26T04:09:30.423Z,379.7
2022-07-26T04:11:14.119Z,382.7
2022-07-26T04:12:57.822Z,384.2
2022-07-26T04:14:41.537Z,383.3
2022-07-26T04:16:25.220Z,383.1
2022-07-26T04:18:08.928Z,383.5
2022-07-26T04:19:52.621Z,384.3
2022-07-26T04:21:36.346Z,383.6
2022-07-26T04:23:20.034Z,384.1
2022-07-26T04:25:03.734Z,385.3
2022-07-26T04:26:47.447Z,385.4
2022-07-26T04:28:31.135Z,388
2022-07-26T04:30:14.850Z,389.2
2022-07-26T04:31:58.543Z,390.1
2022-07-26T04:33:42.237Z,388.5
2022-07-26T04:35:25.946Z,387.5
2022-07-26T04:37:09.654Z,385.5
2022-07-26T04:38:53.339Z,385.8
2022-07-26T04:40:37.049Z,384.7
2022-07-26T04:42:20.769Z,383.6
2022-07-26T04:44:04.457Z,383
2022-07-26T04:45:48.162Z,384.3
2022-07-26T04:47:31.853Z,383.2
2022-07-26T04:49:15.595Z,382.2
2022-07-26T04:50:59.269Z,383.6
2022-07-26T04:52:42.966Z,385.7
2022-07-26T04:54:26.665Z,383.1
2022-07-26T04:56:10.373Z,382.5
2022-07-26T04:57:54.070Z,381.6
2022-07-26T04:59:37.767Z,385.2
2022-07-26T05:01:21.467Z,387.4
2022-07-26T05:03:05.185Z,387.9
2022-07-26T05:04:48.884Z,386.7
2022-07-26T05:06:32.572Z,385.6
2022-07-26T05:08:16.277Z,384.1
2022-07-26T05:09:59.988Z,386.4
2022-07-26T05:11:43.678Z,387.9
2022-07-26T05:13:27.385Z,386.2
2022-07-26T05:15:11.089Z,385.3
2022-07-26T05:16:54.794Z,382.8
2022-07-26T05:18:38.498Z,380.8
2022-07-26T05:20:22.195Z,384.2
2022-07-26T05:22:05.892Z,384.4
2022-07-26T05:23:49.621Z,385.6
2022-07-26T05:25:33.295Z,385.3
2022-07-26T05:27:17.003Z,388.7
2022-07-26T05:29:00.715Z,387.2
2022-07-26T05:30:44.405Z,388
2022-07-26T05:32:28.110Z,387
2022-07-26T05:35:55.513Z,389.3
2022-07-26T05:37:39.214Z,391.4
2022-07-26T05:39:22.912Z,389.6
2022-07-26T05:41:06.622Z,395.1
2022-07-26T05:42:50.342Z,404.8
2022-07-26T05:44:34.033Z,421.6
2022-07-26T05:46:17.736Z,430.9
2022-07-26T05:48:01.428Z,427.3
2022-07-26T05:49:45.130Z,421.6
2022-07-26T05:51:28.833Z,417.9
2022-07-26T05:53:12.535Z,420.8
2022-07-26T05:54:56.230Z,420.4
2022-07-26T05:56:39.935Z,417.7
2022-07-26T05:58:23.630Z,415.7
2022-07-26T06:00:07.360Z,413.6
2022-07-26T06:01:51.048Z,408.5
2022-07-26T06:03:34.748Z,407.3
2022-07-26T06:05:18.457Z,407.8
2022-07-26T06:07:02.153Z,411.2
2022-07-26T06:08:45.861Z,414.1
2022-07-26T06:10:29.566Z,413.9
2022-07-26T06:12:13.252Z,416.6
2022-07-26T06:13:56.962Z,414.4
2022-07-26T06:15:40.659Z,410.4
2022-07-26T06:17:24.361Z,407.9
2022-07-26T06:19:08.064Z,405.4
2022-07-26T06:20:51.777Z,402.8
2022-07-26T06:22:35.469Z,402.4
2022-07-26T06:24:19.171Z,401.7
2022-07-26T06:26:02.868Z,401
2022-07-26T06:27:46.570Z,402.3
2022-07-26T06:29:30.278Z,402.5
2022-07-26T06:31:13.969Z,398.9
2022-07-26T06:32:57.679Z,394.5
2022-07-26T06:34:41.374Z,393.9
2022-07-26T06:36:25.090Z,389.1
2022-07-26T06:38:08.783Z,393.8
2022-07-26T06:39:52.477Z,394
2022-07-26T06:41:36.188Z,391.3
2022-07-26T06:43:19.913Z,390.9
2022-07-26T06:45:03.584Z,390.4
2022-07-26T06:46:47.288Z,390.4
2022-07-26T06:48:30.995Z,390
2022-07-26T06:50:14.700Z,389.6
2022-07-26T06:51:58.397Z,387
2022-07-26T06:53:42.088Z,386.6
2022-07-26T06:55:25.794Z,388.3
2022-07-26T06:57:09.502Z,388.5
2022-07-26T06:58:53.197Z,386.5
2022-07-26T07:00:36.907Z,382.5
2022-07-26T07:02:20.607Z,378.7
2022-07-26T07:04:04.315Z,378.8
2022-07-26T07:05:48.015Z,377
2022-07-26T07:07:31.711Z,375.4
2022-07-26T07:09:15.413Z,376
2022-07-26T07:10:59.120Z,378.7
2022-07-26T07:12:42.817Z,379.1
2022-07-26T07:14:26.528Z,380.3
2022-07-26T07:16:10.229Z,382
2022-07-26T07:17:53.923Z,382
2022-07-26T07:19:37.633Z,379.4
2022-07-26T07:21:21.332Z,379.8
2022-07-26T07:23:05.044Z,381.8
2022-07-26T07:24:48.732Z,380.6
2022-07-26T07:26:32.437Z,378.6
2022-07-26T07:28:16.155Z,378.8
2022-07-26T07:29:59.863Z,379.5
2022-07-26T07:31:43.549Z,381.5
2022-07-26T07:33:27.246Z,382.3
2022-07-26T07:35:10.973Z,380.4
2022-07-26T07:36:54.643Z,385.6
2022-07-26T07:38:38.355Z,391.8
2022-07-26T07:40:22.057Z,395
2022-07-26T07:42:05.759Z,399.2
2022-07-26T07:43:49.457Z,404.8
2022-07-26T07:45:33.163Z,411
2022-07-26T07:49:00.568Z,414.9
2022-07-26T07:50:44.267Z,414.1
2022-07-26T07:52:27.967Z,415.2
2022-07-26T07:54:11.671Z,415.2
2022-07-26T07:55:55.367Z,412.2
2022-07-26T07:57:39.074Z,412.5
2022-07-26T07:59:22.783Z,413
2022-07-26T08:01:06.472Z,411.4
2022-07-26T08:02:50.189Z,410.2
2022-07-26T08:04:33.885Z,407.9
2022-07-26T08:06:17.586Z,408.9
2022-07-26T08:08:01.286Z,410
2022-07-26T08:09:44.976Z,408.9
2022-07-26T08:11:28.691Z,409.2
2022-07-26T08:13:12.387Z,411
2022-07-26T08:16:39.793Z,429.7
2022-07-26T08:18:23.500Z,433.9
2022-07-26T08:20:07.190Z,435.7
2022-07-26T08:21:50.886Z,433.8
2022-07-26T08:23:34.602Z,434.8
2022-07-26T08:25:18.299Z,441.8
2022-07-26T08:27:02.009Z,450.4
2022-07-26T08:28:45.739Z,452.7
2022-07-26T08:30:29.400Z,452.8
2022-07-26T08:32:13.116Z,451.3
2022-07-26T08:33:56.802Z,454.8
2022-07-26T08:35:40.519Z,452.2
2022-07-26T08:37:24.217Z,453
2022-07-26T08:39:07.906Z,456.8
2022-07-26T08:40:51.613Z,456.9
2022-07-26T08:42:35.317Z,457.3
2022-07-26T08:44:19.016Z,457.7
2022-07-26T08:46:02.729Z,458.8
2022-07-26T08:49:30.148Z,459
2022-07-26T08:51:13.835Z,460.4
2022-07-26T08:52:57.522Z,458.4
2022-07-26T08:54:41.233Z,459.4
2022-07-26T08:56:24.929Z,458.8
2022-07-26T08:58:08.632Z,460.2
2022-07-26T08:59:52.342Z,457.3
2022-07-26T09:01:36.041Z,456.8
2022-07-26T09:03:19.745Z,456.1
2022-07-26T09:05:03.465Z,459.2
2022-07-26T09:06:47.141Z,459.1
2022-07-26T09:08:30.849Z,459.7
2022-07-26T09:11:58.254Z,462.5
2022-07-26T09:13:41.958Z,461.5
2022-07-26T09:15:25.649Z,459.1
2022-07-26T09:17:09.359Z,461.3
2022-07-26T09:18:53.065Z,462.3
2022-07-26T09:20:36.752Z,465.9
2022-07-26T09:22:20.476Z,466.6
2022-07-26T09:24:04.177Z,466.6
2022-07-26T09:25:47.858Z,465.3
2022-07-26T09:27:31.569Z,469
2022-07-26T09:29:15.267Z,469.3
2022-07-26T09:30:58.974Z,466.9
2022-07-26T09:32:42.677Z,465.2
2022-07-26T09:34:26.379Z,463.3
2022-07-26T09:37:53.785Z,461.1
2022-07-26T09:39:37.487Z,462.4
2022-07-26T09:41:21.188Z,461.4
2022-07-26T09:43:04.892Z,463.3
2022-07-26T09:44:48.616Z,464.5
2022-07-26T09:46:32.300Z,466
2022-07-26T09:48:15.995Z,467.1
2022-07-26T09:49:59.699Z,469.8
2022-07-26T09:51:43.409Z,523.3
2022-07-26T09:53:27.095Z,568.6
2022-07-26T09:55:10.804Z,563.4
2022-07-26T09:56:54.515Z,557.6
2022-07-26T09:58:38.233Z,549.3
2022-07-26T10:00:21.911Z,541.3
2022-07-26T10:02:05.603Z,535.5
2022-07-26T10:03:49.305Z,532.5
2022-07-26T10:05:33.016Z,533.1
2022-07-26T10:07:16.709Z,535.1
2022-07-26T10:09:00.411Z,534.5
2022-07-26T10:12:27.824Z,547.2
2022-07-26T10:14:11.519Z,556.7
2022-07-26T10:15:55.223Z,559.2
2022-07-26T10:17:38.928Z,561
2022-07-26T10:19:22.627Z,562.1
2022-07-26T10:21:06.327Z,564.1
2022-07-26T10:24:33.737Z,566.6
2022-07-26T10:26:17.432Z,563.7
2022-07-26T10:28:01.135Z,565.2
2022-07-26T10:29:44.847Z,564.5
2022-07-26T10:31:28.543Z,566.1
2022-07-26T10:33:12.256Z,570.6
2022-07-26T10:34:55.942Z,575.2
2022-07-26T10:36:39.659Z,583.6
2022-07-26T10:38:23.400Z,587.7
2022-07-26T10:40:07.054Z,596
2022-07-26T10:41:50.760Z,597.8
2022-07-26T10:43:34.458Z,595.9
2022-07-26T10:45:18.161Z,593.8
2022-07-26T10:47:01.868Z,591.9
2022-07-26T10:48:45.563Z,589
2022-07-26T10:50:29.274Z,585.8
2022-07-26T10:52:12.971Z,586.7
2022-07-26T10:53:56.671Z,583
2022-07-26T10:55:40.376Z,539.9
2022-07-26T10:57:24.082Z,493.2
2022-07-26T10:59:07.802Z,478.1
2022-07-26T11:00:51.490Z,472.1
2022-07-26T11:04:18.895Z,463.4
2022-07-26T11:06:02.601Z,458.6
2022-07-26T11:07:46.289Z,454.2
2022-07-26T11:09:30.014Z,453.7
2022-07-26T11:11:13.701Z,456
2022-07-26T11:12:57.400Z,448.9
2022-07-26T11:14:41.108Z,442.3
2022-07-26T11:16:24.816Z,435.9
2022-07-26T11:18:08.508Z,432.1
2022-07-26T11:19:52.211Z,425.5
2022-07-26T11:21:35.909Z,420.4
2022-07-26T11:23:19.614Z,417.2
2022-07-26T11:25:03.320Z,416.2
2022-07-26T11:26:47.021Z,418.3
2022-07-26T11:30:14.418Z,415.7
2022-07-26T11:31:58.119Z,413.2
2022-07-26T11:33:41.830Z,412.7
2022-07-26T11:35:25.516Z,410.3
2022-07-26T11:37:09.230Z,408.5
2022-07-26T11:38:52.934Z,404.5
2022-07-26T11:40:36.630Z,399.6
2022-07-26T11:42:20.329Z,397.1
2022-07-26T11:44:04.031Z,394.9
2022-07-26T11:45:47.734Z,394.9
2022-07-26T11:49:15.138Z,390.6
2022-07-26T11:50:58.842Z,392.1
2022-07-26T11:52:42.547Z,394.1
2022-07-26T11:54:26.249Z,391.1
2022-07-26T11:56:09.951Z,387.9
2022-07-26T11:57:53.649Z,391.2
2022-07-26T11:59:37.346Z,392.4
2022-07-26T12:01:21.060Z,392.1
2022-07-26T12:03:04.787Z,388.9
2022-07-26T12:04:48.464Z,390.2
2022-07-26T12:06:32.163Z,390
2022-07-26T12:08:15.864Z,391.3
2022-07-26T12:09:59.565Z,395.6
2022-07-26T12:11:43.274Z,394.3
2022-07-26T12:13:26.969Z,394
2022-07-26T12:15:10.671Z,395.1
2022-07-26T12:16:54.387Z,394.8
2022-07-26T12:18:38.071Z,397.2
2022-07-26T12:20:21.776Z,397.4
2022-07-26T12:22:05.468Z,398.8
2022-07-26T12:23:49.181Z,399.7
2022-07-26T12:25:32.880Z,398.9
2022-07-26T12:27:16.583Z,397.9
2022-07-26T12:29:00.278Z,398.2
2022-07-26T12:30:43.988Z,393.7
2022-07-26T12:32:27.690Z,391.1
2022-07-26T12:34:11.397Z,390.1
2022-07-26T12:35:55.088Z,389.9
2022-07-26T12:37:38.792Z,389.1
2022-07-26T12:39:22.527Z,386.6
2022-07-26T12:41:06.202Z,381.6
2022-07-26T12:42:49.901Z,379.2
2022-07-26T12:44:33.611Z,378.9
2022-07-26T12:46:17.303Z,377.1
2022-07-26T12:48:01.036Z,378.2
2022-07-26T12:49:44.753Z,378.5
2022-07-26T12:51:28.442Z,380.8
2022-07-26T12:53:12.130Z,380.4
2022-07-26T12:54:55.819Z,382
2022-07-26T12:56:39.518Z,382.4
2022-07-26T12:58:23.230Z,382.4
2022-07-26T13:00:06.920Z,382.2
2022-07-26T13:01:50.624Z,382.2
2022-07-26T13:03:34.327Z,383.4
2022-07-26T13:05:18.031Z,380.9
2022-07-26T13:07:01.735Z,380.8
2022-07-26T13:08:45.437Z,382.6
2022-07-26T13:12:12.843Z,382.9
2022-07-26T13:13:56.536Z,383.9
2022-07-26T13:15:40.251Z,382.3
2022-07-26T13:17:23.946Z,384.6
2022-07-26T13:19:07.646Z,383.4
2022-07-26T13:20:51.351Z,380.6
2022-07-26T13:22:35.052Z,378.4
2022-07-26T13:24:18.760Z,378.9
2022-07-26T13:26:02.466Z,381.6
2022-07-26T13:27:46.169Z,383
2022-07-26T13:29:29.864Z,381.1
2022-07-26T13:31:13.567Z,381
2022-07-26T13:32:57.260Z,384
2022-07-26T13:34:40.975Z,387.5
2022-07-26T13:36:24.670Z,385.7
2022-07-26T13:38:08.364Z,386.7
2022-07-26T13:39:52.079Z,382.3
2022-07-26T13:41:35.772Z,381
2022-07-26T13:43:19.475Z,383.4
2022-07-26T13:45:03.176Z,385.5
2022-07-26T13:46:46.885Z,388.8
2022-07-26T13:48:30.583Z,389.1
2022-07-26T13:50:14.297Z,386.5
2022-07-26T13:51:57.987Z,388.3
2022-07-26T13:53:41.693Z,388.5
2022-07-26T13:55:25.403Z,389.5
2022-07-26T13:57:09.097Z,388.2
2022-07-26T13:58:52.804Z,386.3
2022-07-26T14:00:36.501Z,385
2022-07-26T14:02:20.207Z,385.3
2022-07-26T14:04:03.911Z,386.6
2022-07-26T14:05:47.600Z,381.5
2022-07-26T14:07:31.304Z,376.5
2022-07-26T14:09:15.020Z,373.3
2022-07-26T14:10:58.708Z,372.3
2022-07-26T14:12:42.413Z,372.1
2022-07-26T14:14:26.110Z,374
2022-07-26T14:16:09.816Z,377
2022-07-26T14:17:53.519Z,378.1
2022-07-26T14:19:37.220Z,378
2022-07-26T14:21:20.925Z,375.8
2022-07-26T14:23:04.631Z,375.1
2022-07-26T14:24:48.324Z,378.7
2022-07-26T14:26:32.022Z,382.7
2022-07-26T14:28:15.735Z,382.8
2022-07-26T14:29:59.431Z,385.2
2022-07-26T14:31:43.145Z,382.6
2022-07-26T14:33:26.834Z,383.9
2022-07-26T14:35:10.543Z,384
2022-07-26T14:36:54.246Z,380.6
2022-07-26T14:38:37.949Z,380.7
2022-07-26T14:40:21.673Z,384.6
2022-07-26T14:42:05.351Z,384.9
2022-07-26T14:43:49.080Z,382.1
2022-07-26T14:45:32.756Z,381.6
2022-07-26T14:49:00.162Z,380
2022-07-26T14:50:43.873Z,379
2022-07-26T14:52:27.562Z,380.1
2022-07-26T14:54:11.272Z,382.6
2022-07-26T14:55:54.971Z,383.1
2022-07-26T14:57:38.664Z,387
2022-07-26T14:59:22.371Z,388.4
2022-07-26T15:01:06.079Z,386.8
2022-07-26T15:02:49.779Z,385.1
2022-07-26T15:04:33.475Z,383.4
2022-07-26T15:06:17.182Z,376.7
2022-07-26T15:08:00.889Z,376.3
2022-07-26T15:09:44.590Z,373.8
2022-07-26T15:11:28.275Z,377
2022-07-26T15:13:11.981Z,384.4
2022-07-26T15:14:55.688Z,390.7
2022-07-26T15:16:39.389Z,394.8
2022-07-26T15:18:23.097Z,404.5
2022-07-26T15:20:06.788Z,417.5
2022-07-26T15:21:50.507Z,433.2
2022-07-26T15:23:34.200Z,429.8
2022-07-26T15:25:17.895Z,427.8
2022-07-26T15:27:01.598Z,432.4
2022-07-26T15:28:45.302Z,432.6
2022-07-26T15:30:29.017Z,433.4
2022-07-26T15:32:12.704Z,429.7
2022-07-26T15:33:56.409Z,423
2022-07-26T15:35:40.112Z,413
2022-07-26T15:37:23.813Z,405.6
2022-07-26T15:39:07.507Z,402.6
2022-07-26T15:40:51.214Z,395.6
2022-07-26T15:42:34.947Z,393.3
2022-07-26T15:44:18.618Z,391.7
2022-07-26T15:46:02.328Z,392.1
2022-07-26T15:47:46.040Z,396
2022-07-26T15:49:29.725Z,401.3
2022-07-26T15:51:13.428Z,408.4
2022-07-26T15:52:57.133Z,413.2
2022-07-26T15:54:40.836Z,414.1
2022-07-26T15:56:24.538Z,416.1
2022-07-26T15:58:08.239Z,414.5
2022-07-26T15:59:51.945Z,415.3
2022-07-26T16:01:35.651Z,414.1
2022-07-26T16:03:19.378Z,413.3
2022-07-26T16:05:03.054Z,412
2022-07-26T16:06:46.759Z,422.4
2022-07-26T16:08:30.460Z,431.5
2022-07-26T16:10:14.155Z,427.4
2022-07-26T16:11:57.851Z,424.1
2022-07-26T16:13:41.557Z,422.4
2022-07-26T16:15:25.260Z,417.5
2022-07-26T16:17:08.954Z,418.3
2022-07-26T16:18:52.670Z,420.1
2022-07-26T16:20:36.375Z,418.3
2022-07-26T16:22:20.081Z,415.5
2022-07-26T16:24:03.778Z,409
2022-07-26T16:25:47.464Z,403.7
2022-07-26T16:27:31.177Z,403.1
2022-07-26T16:29:14.879Z,403.5
2022-07-26T16:30:58.579Z,408.3
2022-07-26T16:32:42.277Z,414.5
2022-07-26T16:34:25.989Z,418.8
2022-07-26T16:36:09.686Z,417.2
2022-07-26T16:37:53.393Z,414.4
2022-07-26T16:39:37.086Z,409.7
2022-07-26T16:41:20.793Z,407.3
2022-07-26T16:43:04.519Z,402.7
2022-07-26T16:44:48.194Z,403.9
2022-07-26T16:46:31.905Z,404.4
2022-07-26T16:48:15.607Z,402.9
2022-07-26T16:49:59.299Z,404
2022-07-26T16:51:43.000Z,404.5
2022-07-26T16:53:26.712Z,404.7
2022-07-26T16:55:10.412Z,401.2
2022-07-26T16:56:54.117Z,398.7
2022-07-26T16:58:37.805Z,400.3
2022-07-26T17:00:21.510Z,400.9
2022-07-26T17:02:05.223Z,400.4
2022-07-26T17:03:48.909Z,399.2
2022-07-26T17:05:32.618Z,399.3
2022-07-26T17:07:16.326Z,398.2
2022-07-26T17:09:00.021Z,394.1
2022-07-26T17:10:43.717Z,391.5
2022-07-26T17:12:27.428Z,395.2
2022-07-26T17:14:11.133Z,397.9
2022-07-26T17:15:54.838Z,400.1
2022-07-26T17:17:38.533Z,401.4
2022-07-26T17:19:22.237Z,402.7
2022-07-26T17:21:05.940Z,405.2
2022-07-26T17:22:49.633Z,408.6
2022-07-26T17:24:33.344Z,412.9
2022-07-26T17:26:17.052Z,416.1
2022-07-26T17:28:00.743Z,419.3
2022-07-26T17:29:44.456Z,417.2
2022-07-26T17:31:28.147Z,414.9
2022-07-26T17:33:11.851Z,413.2
2022-07-26T17:34:55.552Z,412.1
2022-07-26T17:36:39.246Z,408.7
2022-07-26T17:38:22.964Z,405.6
2022-07-26T17:40:06.658Z,400.5
2022-07-26T17:41:50.364Z,399.7
2022-07-26T17:43:34.066Z,402
2022-07-26T17:45:17.760Z,404.1
2022-07-26T17:47:01.467Z,405.3
2022-07-26T17:48:45.173Z,407.5
2022-07-26T17:50:28.878Z,407.6
2022-07-26T17:52:12.572Z,406.4
2022-07-26T17:53:56.272Z,405.8
2022-07-26T17:55:39.997Z,405.2
2022-07-26T17:57:23.677Z,402.9
2022-07-26T17:59:07.396Z,401
2022-07-26T18:00:51.079Z,397.6
2022-07-26T18:02:34.785Z,392.9
2022-07-26T18:04:18.486Z,392
2022-07-26T18:06:02.192Z,393.2
2022-07-26T18:07:45.897Z,394.8
2022-07-26T18:09:29.597Z,393.5
2022-07-26T18:11:13.291Z,394.2
2022-07-26T18:12:56.991Z,392.2
2022-07-26T18:14:40.695Z,392.9
2022-07-26T18:16:24.400Z,395.1
2022-07-26T18:18:08.094Z,396.9
2022-07-26T18:19:51.800Z,397.3
2022-07-26T18:21:35.512Z,400.4
2022-07-26T18:23:19.204Z,399.3
2022-07-26T18:25:02.910Z,396.6
2022-07-26T18:26:46.610Z,398
2022-07-26T18:28:30.318Z,394.2
2022-07-26T18:30:14.016Z,388.9
2022-07-26T18:31:57.713Z,385.5
2022-07-26T18:33:41.434Z,382.1
2022-07-26T18:35:25.126Z,380.6
2022-07-26T18:37:08.818Z,380.8
2022-07-26T18:38:52.537Z,382
2022-07-26T18:40:36.226Z,381.9
2022-07-26T18:42:19.926Z,384.2
2022-07-26T18:44:03.631Z,391.7
2022-07-26T18:45:47.349Z,399.4
2022-07-26T18:47:31.027Z,401.4
2022-07-26T18:49:14.735Z,402.7
2022-07-26T18:50:58.430Z,403.6
2022-07-26T18:52:42.143Z,403.1
2022-07-26T18:54:25.843Z,404.1
2022-07-26T18:56:09.546Z,402.6
2022-07-26T18:57:53.252Z,401.3
2022-07-26T18:59:36.945Z,397.6
2022-07-26T19:01:20.647Z,393.2
2022-07-26T19:03:04.353Z,391.3
2022-07-26T19:04:48.048Z,389.8
2022-07-26T19:06:31.753Z,387.9
2022-07-26T19:08:15.466Z,387.2
2022-07-26T19:09:59.165Z,391
2022-07-26T19:11:42.862Z,392.6
2022-07-26T19:13:26.570Z,392.5
2022-07-26T19:15:10.274Z,395.6
2022-07-26T19:16:53.972Z,394.7
2022-07-26T19:18:37.674Z,390.3
2022-07-26T19:20:21.378Z,387.8
2022-07-26T19:22:05.074Z,385.7
2022-07-26T19:23:48.770Z,385.8
2022-07-26T19:25:32.476Z,384.1
2022-07-26T19:27:16.176Z,383
2022-07-26T19:28:59.880Z,384.6
2022-07-26T19:30:43.582Z,386.1
2022-07-26T19:32:27.281Z,389.5
2022-07-26T19:34:10.984Z,387.4
2022-07-26T19:35:54.692Z,388.1
2022-07-26T19:37:38.384Z,389.7
2022-07-26T19:39:22.092Z,390.1
2022-07-26T19:41:05.798Z,390.6
2022-07-26T19:42:49.490Z,389.2
2022-07-26T19:44:33.188Z,388.2
2022-07-26T19:46:16.890Z,385.4
2022-07-26T19:48:00.598Z,382.7
2022-07-26T19:49:44.309Z,381.3
2022-07-26T19:51:27.999Z,381.2
2022-07-26T19:53:11.700Z,380.4
2022-07-26T19:54:55.408Z,380.6
2022-07-26T19:56:39.109Z,382.6
2022-07-26T19:58:22.811Z,383.5
2022-07-26T20:00:06.514Z,386.2
2022-07-26T20:01:50.222Z,388.3
2022-07-26T20:03:33.922Z,389.2
2022-07-26T20:05:17.617Z,386.7
2022-07-26T20:07:01.319Z,384.9
2022-07-26T20:08:45.023Z,383.2
2022-07-26T20:10:28.720Z,381.1
2022-07-26T20:12:12.420Z,381.1
2022-07-26T20:13:56.128Z,380.1
2022-07-26T20:15:39.826Z,382.9
2022-07-26T20:17:23.528Z,386.8
2022-07-26T20:19:07.241Z,382.6
2022-07-26T20:20:50.938Z,380.8
2022-07-26T20:22:34.640Z,379
2022-07-26T20:24:18.334Z,379.3
2022-07-26T20:26:02.038Z,383.9
2022-07-26T20:27:45.743Z,382.8
2022-07-26T20:29:29.440Z,383.5
2022-07-26T20:31:13.145Z,381.7
2022-07-26T20:32:56.851Z,384
2022-07-26T20:34:40.558Z,385.9
2022-07-26T20:36:24.263Z,384.5
2022-07-26T20:38:07.955Z,384.5
2022-07-26T20:39:51.662Z,383.7
2022-07-26T20:41:35.377Z,382.6
2022-07-26T20:43:19.065Z,381.5
2022-07-26T20:45:02.796Z,383.4
2022-07-26T20:48:30.160Z,381.6
2022-07-26T20:50:13.877Z,381.3
2022-07-26T20:51:57.568Z,379.9
2022-07-26T20:53:41.282Z,378.7
2022-07-26T20:57:08.677Z,374.7
2022-07-26T20:58:52.389Z,375.5
2022-07-26T21:00:36.091Z,378
2022-07-26T21:04:03.490Z,381.9
2022-07-26T21:05:47.190Z,380.6
2022-07-26T21:07:30.887Z,381.2
2022-07-26T21:09:14.591Z,380.7
2022-07-26T21:10:58.289Z,378.7
2022-07-26T21:12:41.997Z,377.2
2022-07-26T21:14:25.700Z,377.5
2022-07-26T21:16:09.392Z,378.5
2022-07-26T21:17:53.116Z,379.6
2022-07-26T21:19:36.806Z,377.9
2022-07-26T21:21:20.504Z,377.4
2022-07-26T21:23:04.211Z,378.6
2022-07-26T21:24:47.920Z,378.3
2022-07-26T21:26:31.626Z,379.3
2022-07-26T21:28:15.319Z,381.8
2022-07-26T21:29:59.014Z,384.6
2022-07-26T21:31:42.724Z,389.3
2022-07-26T21:33:26.419Z,383.3
2022-07-26T21:35:10.118Z,380.6
2022-07-26T21:36:53.826Z,378.3
2022-07-26T21:38:37.583Z,381.3
2022-07-26T21:40:21.237Z,380.5
2022-07-26T21:42:04.939Z,381.6
2022-07-26T21:43:48.631Z,382.2
2022-07-26T21:45:32.334Z,381.9
2022-07-26T21:47:16.045Z,381.3
2022-07-26T21:48:59.741Z,381.7
2022-07-26T21:50:43.443Z,379.9
2022-07-26T21:52:27.151Z,380.3
2022-07-26T21:54:10.855Z,380.8
2022-07-26T21:55:54.557Z,382.9
2022-07-26T21:57:38.245Z,383.8
2022-07-26T21:59:21.948Z,385.8
2022-07-26T22:01:05.655Z,384.8
2022-07-26T22:02:49.347Z,385.8
2022-07-26T22:04:33.071Z,389.5
2022-07-26T22:06:16.756Z,391.1
2022-07-26T22:08:00.457Z,390.6
2022-07-26T22:09:44.181Z,389.9
2022-07-26T22:11:27.867Z,389.2
2022-07-26T22:13:11.569Z,385.9
2022-07-26T22:14:55.277Z,385.3
2022-07-26T22:16:38.967Z,386.6
2022-07-26T22:18:22.675Z,388.2
2022-07-26T22:20:06.373Z,384.1
2022-07-26T22:21:50.077Z,382.8
2022-07-26T22:23:33.777Z,380.7
2022-07-26T22:25:17.478Z,381.8
2022-07-26T22:27:01.179Z,378.2
2022-07-26T22:28:44.882Z,376.5
2022-07-26T22:30:28.587Z,377.6
2022-07-26T22:32:12.289Z,378.9
2022-07-26T22:33:55.998Z,378.4
2022-07-26T22:35:39.696Z,379.3
2022-07-26T22:37:23.397Z,381.2
2022-07-26T22:39:07.108Z,384
2022-07-26T22:40:50.798Z,387.1
2022-07-26T22:42:34.506Z,385.1
2022-07-26T22:44:18.214Z,382.8
2022-07-26T22:46:01.915Z,386.3
2022-07-26T22:47:45.618Z,390.8
2022-07-26T22:49:29.316Z,392.2
2022-07-26T22:51:13.025Z,392.8
2022-07-26T22:52:56.726Z,393.5